Time;durP1;ratioP1;P1;durP2;ratioP2;P2;SDS_P1;SDS_P2;PMS_P1;PMS_P2;Temp;Humidity;BMP_temperature;BMP_pressure;BME280_temperature;BME280_humidity;BME280_pressure;Samples;Min_cycle;Max_cycle;Signal;HPM_P1;HPM_P2
2023/09/20 00:01:48;;;;;;;2.87;2.63;;;13.90;99.90;;;;;;4992272;28;20451;-64
2023/09/20 00:04:15;;;;;;;2.70;2.50;;;14.00;99.90;;;;;;4991458;28;20505;-65
2023/09/20 00:06:43;;;;;;;1.90;1.80;;;14.00;99.90;;;;;;4992168;28;20494;-65
2023/09/20 00:09:10;;;;;;;2.03;1.70;;;14.00;99.90;;;;;;4991829;28;20450;-65
2023/09/20 00:11:37;;;;;;;2.57;2.37;;;13.90;99.90;;;;;;4991961;28;20526;-65
2023/09/20 00:14:04;;;;;;;3.43;2.03;;;13.90;99.90;;;;;;4991307;28;20470;-65
2023/09/20 00:16:31;;;;;;;2.50;2.40;;;13.90;99.90;;;;;;4991956;28;20898;-65
2023/09/20 00:18:58;;;;;;;2.17;1.63;;;13.90;99.90;;;;;;4991665;28;20502;-65
2023/09/20 00:21:25;;;;;;;2.40;2.20;;;13.90;99.90;;;;;;4991689;28;20494;-65
2023/09/20 00:23:53;;;;;;;2.40;1.97;;;13.90;99.90;;;;;;4991184;28;20455;-65
2023/09/20 00:26:20;;;;;;;3.70;1.70;;;13.80;99.90;;;;;;4991557;28;20450;-64
2023/09/20 00:28:48;;;;;;;3.50;2.40;;;13.80;99.90;;;;;;4991468;28;20454;-64
2023/09/20 00:31:16;;;;;;;2.83;2.63;;;13.70;99.90;;;;;;4991386;28;20539;-65
2023/09/20 00:33:43;;;;;;;2.30;1.90;;;13.70;99.90;;;;;;4991265;28;20446;-65
2023/09/20 00:36:10;;;;;;;2.30;2.10;;;13.70;99.90;;;;;;4991547;28;20514;-65
2023/09/20 00:38:37;;;;;;;2.53;2.33;;;13.60;99.90;;;;;;4991748;28;20582;-64
2023/09/20 00:41:07;;;;;;;1.70;1.60;;;13.60;99.90;;;;;;4991562;28;20442;-65
2023/09/20 00:43:33;;;;;;;2.63;2.53;;;13.60;99.90;;;;;;4991171;28;20463;-65
2023/09/20 00:46:01;;;;;;;3.20;1.97;;;13.60;99.90;;;;;;4991214;28;20470;-65
2023/09/20 00:48:29;;;;;;;2.20;2.00;;;13.60;99.90;;;;;;4991560;28;20495;-65
2023/09/20 00:50:57;;;;;;;3.10;2.20;;;13.60;99.90;;;;;;4991415;28;20455;-65
2023/09/20 00:53:24;;;;;;;3.87;1.87;;;13.60;99.90;;;;;;4991874;28;20453;-64
2023/09/20 00:55:51;;;;;;;1.90;1.80;;;13.50;99.90;;;;;;4995118;28;20483;-64
2023/09/20 00:58:20;;;;;;;2.17;2.03;;;13.50;99.90;;;;;;4995275;28;20542;-65
2023/09/20 01:00:51;;;;;;;2.60;2.17;;;13.50;99.90;;;;;;4995496;28;20589;-65
2023/09/20 01:03:19;;;;;;;2.07;1.90;;;13.50;99.90;;;;;;4995076;28;20462;-65
2023/09/20 01:05:48;;;;;;;2.17;1.93;;;13.40;99.90;;;;;;4995322;28;20498;-65
2023/09/20 01:08:17;;;;;;;2.00;1.90;;;13.40;99.90;;;;;;4995241;28;20483;-65
2023/09/20 01:10:45;;;;;;;1.83;1.73;;;13.40;99.90;;;;;;4995214;28;20465;-65
2023/09/20 01:13:15;;;;;;;2.47;2.30;;;13.30;99.90;;;;;;4994815;28;20517;-65
2023/09/20 01:15:44;;;;;;;2.10;2.00;;;13.30;99.90;;;;;;4994851;28;21006;-64
2023/09/20 01:18:12;;;;;;;1.93;1.83;;;13.30;99.90;;;;;;4995191;28;20451;-65
2023/09/20 01:20:40;;;;;;;2.20;2.10;;;13.30;99.90;;;;;;4995385;28;20450;-65
2023/09/20 01:23:09;;;;;;;4.93;2.30;;;13.30;99.90;;;;;;4994580;28;20461;-65
2023/09/20 01:25:37;;;;;;;2.93;2.27;;;13.20;99.90;;;;;;4994960;28;20506;-65
2023/09/20 01:28:06;;;;;;;1.80;1.70;;;13.20;99.90;;;;;;4994721;28;20512;-65
2023/09/20 01:30:36;;;;;;;2.03;1.93;;;13.30;99.90;;;;;;4994343;28;20524;-65
2023/09/20 01:33:06;;;;;;;2.00;1.90;;;13.20;99.90;;;;;;4994484;28;20826;-65
2023/09/20 01:35:34;;;;;;;1.97;1.87;;;13.20;99.90;;;;;;4994907;28;20475;-65
2023/09/20 01:38:06;;;;;;;2.03;1.67;;;13.20;99.90;;;;;;4994578;28;20533;-65
2023/09/20 01:40:34;;;;;;;1.53;1.53;;;13.10;99.90;;;;;;4994716;28;20455;-65
2023/09/20 01:43:03;;;;;;;2.10;2.00;;;13.10;99.90;;;;;;4994255;28;20451;-65
2023/09/20 01:45:32;;;;;;;2.07;1.87;;;13.10;99.90;;;;;;4994670;28;20475;-65
2023/09/20 01:48:00;;;;;;;2.60;2.03;;;13.00;99.90;;;;;;4994561;28;20497;-65
2023/09/20 01:50:28;;;;;;;1.83;1.73;;;13.00;99.90;;;;;;4994700;28;20835;-65
2023/09/20 01:52:56;;;;;;;2.30;2.10;;;12.90;99.90;;;;;;4994276;28;20526;-65
2023/09/20 01:55:24;;;;;;;2.20;2.03;;;12.90;99.90;;;;;;4994338;28;20482;-65
2023/09/20 01:57:54;;;;;;;1.60;1.50;;;12.90;99.90;;;;;;4994532;28;20446;-65
2023/09/20 02:00:25;;;;;;;2.00;1.83;;;12.90;99.90;;;;;;4994369;28;20462;-65
2023/09/20 02:02:54;;;;;;;2.20;1.97;;;12.90;99.90;;;;;;4993882;28;20455;-65
2023/09/20 02:05:23;;;;;;;2.47;2.27;;;12.80;99.90;;;;;;4993750;28;20478;-65
2023/09/20 02:07:51;;;;;;;2.00;1.77;;;12.80;99.90;;;;;;4994024;28;20486;-64
2023/09/20 02:10:18;;;;;;;1.63;1.53;;;12.80;99.90;;;;;;4994110;28;20851;-65
2023/09/20 02:12:46;;;;;;;2.27;2.17;;;12.80;99.90;;;;;;4993779;28;20447;-65
2023/09/20 02:15:15;;;;;;;1.90;1.80;;;12.80;99.90;;;;;;4994042;28;20475;-65
2023/09/20 02:17:42;;;;;;;2.13;2.03;;;12.80;99.90;;;;;;4994094;28;20508;-65
2023/09/20 02:20:12;;;;;;;2.10;1.73;;;12.80;99.90;;;;;;4993935;28;20813;-65
2023/09/20 02:22:40;;;;;;;2.03;1.90;;;12.80;99.90;;;;;;4993910;28;20450;-65
2023/09/20 02:25:11;;;;;;;2.23;2.10;;;12.80;99.90;;;;;;4993500;28;20533;-65
2023/09/20 02:27:39;;;;;;;2.37;2.10;;;12.80;99.90;;;;;;4993868;28;20479;-65
2023/09/20 02:30:09;;;;;;;3.30;2.30;;;12.80;99.90;;;;;;4993886;28;20450;-65
2023/09/20 02:32:37;;;;;;;1.80;1.70;;;12.80;99.90;;;;;;4993538;28;20450;-65
2023/09/20 02:35:06;;;;;;;1.37;1.37;;;12.80;99.90;;;;;;4993622;28;21016;-65
2023/09/20 02:37:33;;;;;;;3.57;1.83;;;12.90;99.90;;;;;;4993825;28;20439;-64
2023/09/20 02:40:00;;;;;;;2.73;1.90;;;12.80;99.90;;;;;;4993536;28;20455;-64
2023/09/20 02:42:28;;;;;;;2.50;2.33;;;12.80;99.90;;;;;;4993193;28;20967;-65
2023/09/20 02:44:55;;;;;;;1.93;1.83;;;12.80;99.90;;;;;;4993351;28;20738;-64
2023/09/20 02:47:24;;;;;;;2.67;2.00;;;12.80;99.90;;;;;;4993023;28;20483;-65
2023/09/20 02:49:52;;;;;;;1.63;1.53;;;12.80;99.90;;;;;;4993588;28;20454;-64
2023/09/20 02:52:19;;;;;;;2.37;2.27;;;12.90;99.90;;;;;;4993177;28;20447;-64
2023/09/20 02:54:46;;;;;;;1.97;1.87;;;12.90;99.90;;;;;;4993071;28;20483;-65
2023/09/20 02:57:13;;;;;;;1.87;1.77;;;12.90;99.90;;;;;;4993146;28;20477;-64
2023/09/20 02:59:40;;;;;;;2.57;2.37;;;12.80;99.90;;;;;;4993208;28;20443;-65
2023/09/20 03:02:07;;;;;;;1.90;1.80;;;12.80;99.90;;;;;;4992757;28;20451;-64
2023/09/20 03:04:35;;;;;;;1.40;1.30;;;12.80;99.90;;;;;;4992765;28;20475;-64
2023/09/20 03:07:03;;;;;;;5.03;2.20;;;12.80;99.90;;;;;;4993153;28;20458;-64
2023/09/20 03:09:35;;;;;;;2.13;1.93;;;12.80;99.90;;;;;;4992909;28;20494;-64
2023/09/20 03:12:05;;;;;;;1.80;1.70;;;12.80;99.90;;;;;;4992979;28;20451;-64
2023/09/20 03:14:33;;;;;;;2.10;1.90;;;12.70;99.90;;;;;;4992489;28;20470;-64
2023/09/20 03:17:02;;;;;;;2.00;1.90;;;12.70;99.90;;;;;;4991173;28;20451;-64
2023/09/20 03:19:31;;;;;;;2.10;2.00;;;12.70;99.90;;;;;;4992721;28;20807;-64
2023/09/20 03:21:59;;;;;;;4.20;2.63;;;12.70;99.90;;;;;;4992746;28;20447;-64
2023/09/20 03:24:29;;;;;;;2.07;1.70;;;12.60;99.90;;;;;;4992266;28;20476;-64
2023/09/20 03:26:56;;;;;;;2.00;1.90;;;12.60;99.90;;;;;;4992785;28;20899;-64
2023/09/20 03:29:23;;;;;;;2.03;1.90;;;12.60;99.90;;;;;;4992669;28;20491;-64
2023/09/20 03:31:50;;;;;;;2.03;1.83;;;12.60;99.90;;;;;;4992654;28;20447;-64
2023/09/20 03:34:20;;;;;;;1.83;1.73;;;12.60;99.90;;;;;;4992238;28;20473;-65
2023/09/20 03:36:47;;;;;;;2.33;2.13;;;12.60;99.90;;;;;;4992366;28;20509;-65
2023/09/20 03:39:14;;;;;;;2.37;1.80;;;12.50;99.90;;;;;;4992335;28;21016;-64
2023/09/20 03:41:43;;;;;;;2.23;2.00;;;12.50;99.90;;;;;;4990818;28;20455;-64
2023/09/20 03:44:09;;;;;;;2.20;1.90;;;12.50;99.90;;;;;;4992002;28;20467;-64
2023/09/20 03:46:36;;;;;;;2.27;1.90;;;12.50;99.90;;;;;;4973319;28;20452;-64
2023/09/20 03:49:03;;;;;;;3.67;2.20;;;12.50;99.90;;;;;;4972796;28;20491;-65
2023/09/20 03:51:31;;;;;;;3.17;1.80;;;12.50;99.90;;;;;;4972725;28;20490;-64
2023/09/20 03:53:58;;;;;;;2.00;1.80;;;12.50;99.90;;;;;;4972483;28;20479;-64
2023/09/20 03:56:25;;;;;;;2.50;2.30;;;12.60;99.90;;;;;;4972715;28;20966;-64
2023/09/20 03:58:53;;;;;;;3.33;1.83;;;12.60;99.90;;;;;;4972860;28;20536;-64
2023/09/20 04:01:20;;;;;;;2.50;2.33;;;12.60;99.90;;;;;;4972903;28;20546;-64
2023/09/20 04:03:47;;;;;;;2.23;2.13;;;12.60;99.90;;;;;;4972475;28;20495;-64
2023/09/20 04:06:14;;;;;;;2.27;2.13;;;12.60;99.90;;;;;;4972832;28;20498;-64
2023/09/20 04:08:41;;;;;;;3.07;2.50;;;12.50;99.90;;;;;;4972684;28;20932;-64
2023/09/20 04:11:11;;;;;;;3.20;3.00;;;12.50;99.90;;;;;;4972728;28;20457;-64
2023/09/20 04:13:38;;;;;;;2.67;2.47;;;12.50;99.90;;;;;;4972421;28;20458;-64
2023/09/20 04:16:07;;;;;;;2.73;2.47;;;12.50;99.90;;;;;;4972536;28;20554;-64
2023/09/20 04:18:33;;;;;;;2.10;1.80;;;12.50;99.90;;;;;;4972361;28;20995;-64
2023/09/20 04:21:00;;;;;;;3.37;1.90;;;12.50;99.90;;;;;;4972616;28;20455;-64
2023/09/20 04:23:27;;;;;;;2.30;2.20;;;12.50;99.90;;;;;;4972191;28;20482;-65
2023/09/20 04:25:55;;;;;;;2.63;2.53;;;12.50;99.90;;;;;;4972357;28;20997;-64
2023/09/20 04:28:22;;;;;;;2.93;2.13;;;12.50;99.90;;;;;;4972141;28;20495;-64
2023/09/20 04:30:50;;;;;;;2.40;2.20;;;12.50;99.90;;;;;;4972115;28;20447;-64
2023/09/20 04:33:18;;;;;;;3.43;2.10;;;12.50;99.90;;;;;;4971860;28;20515;-64
2023/09/20 04:35:47;;;;;;;1.93;1.83;;;12.50;99.90;;;;;;4972089;28;20530;-64
2023/09/20 04:38:15;;;;;;;2.13;1.93;;;12.50;99.90;;;;;;4972153;28;20502;-64
2023/09/20 04:40:41;;;;;;;2.60;2.33;;;12.50;99.90;;;;;;4972289;28;20841;-64
2023/09/20 04:43:08;;;;;;;2.10;1.90;;;12.50;99.90;;;;;;4971859;28;20457;-64
2023/09/20 04:45:35;;;;;;;2.10;2.00;;;12.60;99.90;;;;;;4971908;28;20559;-64
2023/09/20 04:48:06;;;;;;;2.20;2.10;;;12.60;99.90;;;;;;4972041;28;21025;-64
2023/09/20 04:50:35;;;;;;;4.00;2.37;;;12.60;99.90;;;;;;4972088;28;21202;-64
2023/09/20 04:53:02;;;;;;;2.37;2.00;;;12.50;99.90;;;;;;4971579;28;20527;-64
2023/09/20 04:55:29;;;;;;;2.80;2.60;;;12.50;99.90;;;;;;4971836;28;20582;-64
2023/09/20 04:57:56;;;;;;;3.60;3.00;;;12.50;99.90;;;;;;4971900;28;20448;-64
2023/09/20 05:00:33;;;;;;;3.97;2.30;;;12.50;99.90;;;;;;4971922;28;20451;-64
2023/09/20 05:03:00;;;;;;;2.50;2.30;;;12.60;99.90;;;;;;4971949;28;20835;-65
2023/09/20 05:05:27;;;;;;;2.00;1.90;;;12.50;99.90;;;;;;4971988;28;20523;-65
2023/09/20 05:07:56;;;;;;;4.20;1.97;;;12.50;99.90;;;;;;4971916;28;20475;-64
2023/09/20 05:10:23;;;;;;;3.00;1.90;;;12.50;99.90;;;;;;4971835;28;20479;-64
2023/09/20 05:12:50;;;;;;;2.20;2.00;;;12.50;99.90;;;;;;4971651;28;20455;-64
2023/09/20 05:15:17;;;;;;;2.80;2.53;;;12.50;99.90;;;;;;4972015;28;20896;-64
2023/09/20 05:17:44;;;;;;;2.20;2.10;;;12.50;99.90;;;;;;4972002;28;20829;-64
2023/09/20 05:20:12;;;;;;;3.30;2.90;;;12.50;99.90;;;;;;4972046;28;20452;-64
2023/09/20 05:22:40;;;;;;;2.90;2.67;;;12.50;99.90;;;;;;4971378;28;20456;-64
2023/09/20 05:25:09;;;;;;;4.73;2.70;;;12.50;99.90;;;;;;4971512;28;20478;-65
2023/09/20 05:27:37;;;;;;;1.87;1.63;;;12.50;99.90;;;;;;4971947;28;20530;-64
2023/09/20 05:30:05;;;;;;;3.60;2.77;;;12.50;99.90;;;;;;4971718;28;20490;-65
2023/09/20 05:32:32;;;;;;;2.60;2.40;;;12.60;99.90;;;;;;4983062;28;20450;-64
2023/09/20 05:34:58;;;;;;;2.87;2.10;;;12.60;99.90;;;;;;4991086;28;20467;-64
2023/09/20 05:37:25;;;;;;;3.47;3.20;;;12.60;99.90;;;;;;4991282;28;20459;-64
2023/09/20 05:39:52;;;;;;;2.87;2.20;;;12.70;99.90;;;;;;4992430;28;20425;-64
2023/09/20 05:42:20;;;;;;;2.33;1.93;;;12.70;99.90;;;;;;4994568;28;20442;-64
2023/09/20 05:44:48;;;;;;;2.93;2.40;;;12.70;99.90;;;;;;4994596;28;20466;-64
2023/09/20 05:47:16;;;;;;;2.80;2.60;;;12.70;99.90;;;;;;4994763;28;20541;-64
2023/09/20 05:49:44;;;;;;;3.27;2.50;;;12.80;99.90;;;;;;4994415;28;20573;-64
2023/09/20 05:52:10;;;;;;;1.93;1.80;;;12.80;99.90;;;;;;4994249;28;20458;-65
2023/09/20 05:54:42;;;;;;;2.23;1.97;;;12.80;99.90;;;;;;4994209;28;20493;-64
2023/09/20 05:57:08;;;;;;;2.20;2.10;;;12.80;99.90;;;;;;4994310;28;21005;-64
2023/09/20 05:59:36;;;;;;;1.90;1.80;;;12.90;99.90;;;;;;4994493;28;20541;-65
2023/09/20 06:02:05;;;;;;;2.80;1.80;;;12.90;99.90;;;;;;4994213;28;20945;-64
2023/09/20 06:04:31;;;;;;;2.70;2.50;;;13.00;99.90;;;;;;4994052;28;21058;-65
2023/09/20 06:07:02;;;;;;;2.40;2.20;;;13.00;99.90;;;;;;4989878;28;20982;-65
2023/09/20 06:09:29;;;;;;;2.13;2.03;;;13.00;99.90;;;;;;4994319;28;20509;-65
2023/09/20 06:11:56;;;;;;;2.30;2.07;;;13.00;99.90;;;;;;4994159;28;20456;-64
2023/09/20 06:14:23;;;;;;;2.10;2.00;;;13.10;99.90;;;;;;4993713;28;20471;-65
2023/09/20 06:16:52;;;;;;;2.17;2.00;;;13.10;99.90;;;;;;4994156;28;20478;-65
2023/09/20 06:19:19;;;;;;;2.30;2.10;;;13.10;99.90;;;;;;4991740;28;20451;-65
2023/09/20 06:21:47;;;;;;;2.20;2.00;;;13.10;99.90;;;;;;4975387;28;20490;-65
2023/09/20 06:24:15;;;;;;;2.20;2.00;;;13.20;99.90;;;;;;4978559;28;20467;-65
2023/09/20 06:26:43;;;;;;;2.07;1.97;;;13.20;99.90;;;;;;4975144;28;20475;-65
2023/09/20 06:29:10;;;;;;;3.00;1.90;;;13.30;99.90;;;;;;4980210;28;20482;-65
2023/09/20 06:31:37;;;;;;;2.13;2.00;;;13.30;99.90;;;;;;4993919;28;21036;-64
2023/09/20 06:34:06;;;;;;;2.93;2.27;;;13.40;99.90;;;;;;4974590;28;21064;-65
2023/09/20 06:36:33;;;;;;;2.90;2.23;;;13.40;99.90;;;;;;4974293;28;20486;-65
2023/09/20 06:38:59;;;;;;;2.53;1.80;;;13.50;99.90;;;;;;4974224;28;20833;-65
2023/09/20 06:41:26;;;;;;;1.93;1.80;;;13.50;99.90;;;;;;4989977;28;20501;-65
2023/09/20 06:43:53;;;;;;;4.70;2.23;;;13.50;99.90;;;;;;4993500;28;20530;-65
2023/09/20 06:46:22;;;;;;;2.77;2.07;;;13.60;99.90;;;;;;4992877;28;20450;-65
2023/09/20 06:48:49;;;;;;;3.40;2.60;;;13.60;99.90;;;;;;4993023;28;20506;-65
2023/09/20 06:51:17;;;;;;;4.00;3.70;;;13.70;99.90;;;;;;4991918;28;20453;-65
2023/09/20 06:53:46;;;;;;;2.00;1.90;;;13.70;99.90;;;;;;4992655;28;20451;-65
2023/09/20 06:56:13;;;;;;;2.97;2.43;;;13.80;99.90;;;;;;4992896;28;20509;-65
2023/09/20 06:58:39;;;;;;;2.70;2.50;;;13.80;99.90;;;;;;4992966;28;20821;-65
2023/09/20 07:01:07;;;;;;;3.90;2.97;;;13.90;99.90;;;;;;4992292;28;20447;-65
2023/09/20 07:03:33;;;;;;;3.90;3.60;;;14.00;99.90;;;;;;4992839;28;20455;-65
2023/09/20 07:06:01;;;;;;;3.20;2.90;;;14.10;99.90;;;;;;4991849;28;20458;-65
2023/09/20 07:08:35;;;;;;;2.87;2.57;;;14.20;99.90;;;;;;4992670;28;20831;-65
2023/09/20 07:11:04;;;;;;;2.83;2.50;;;14.30;99.90;;;;;;4992456;28;20991;-66
2023/09/20 07:13:32;;;;;;;2.73;2.50;;;14.40;99.90;;;;;;4992496;28;20514;-65
2023/09/20 07:16:04;;;;;;;4.80;3.80;;;14.60;99.90;;;;;;4992313;28;21000;-65
2023/09/20 07:18:31;;;;;;;4.90;3.10;;;14.70;99.90;;;;;;4992830;28;20539;-65
2023/09/20 07:20:58;;;;;;;2.90;2.23;;;14.80;99.90;;;;;;4992205;28;20480;-65
2023/09/20 07:23:25;;;;;;;5.50;3.20;;;15.00;99.90;;;;;;4992138;28;21135;-65
2023/09/20 07:25:53;;;;;;;3.90;2.90;;;15.10;99.90;;;;;;4991941;28;20518;-65
2023/09/20 07:28:20;;;;;;;2.57;2.20;;;15.20;99.90;;;;;;4992359;28;20511;-65
2023/09/20 07:30:47;;;;;;;2.53;2.33;;;15.40;99.90;;;;;;4992337;28;20491;-65
2023/09/20 07:33:19;;;;;;;2.53;2.33;;;15.60;99.90;;;;;;4992094;28;20490;-64
2023/09/20 07:35:48;;;;;;;3.93;2.60;;;15.80;99.90;;;;;;4992315;28;20470;-65
2023/09/20 07:38:25;;;;;;;2.30;2.10;;;16.00;99.90;;;;;;4992367;28;20453;-65
2023/09/20 07:40:54;;;;;;;4.00;2.90;;;16.20;99.90;;;;;;4992210;28;20445;-65
2023/09/20 07:43:21;;;;;;;3.10;2.90;;;16.30;99.90;;;;;;4992099;28;20507;-65
2023/09/20 07:45:49;;;;;;;3.83;2.23;;;16.50;99.90;;;;;;4991747;28;20501;-65
2023/09/20 07:48:17;;;;;;;2.50;2.30;;;16.60;99.90;;;;;;4992136;28;20462;-65
2023/09/20 07:50:49;;;;;;;4.13;2.30;;;16.70;99.90;;;;;;4991773;28;20864;-65
2023/09/20 07:53:17;;;;;;;3.27;2.97;;;16.70;99.90;;;;;;4991707;28;20512;-65
2023/09/20 07:55:56;;;;;;;3.50;2.30;;;16.80;99.90;;;;;;4991193;28;20491;-65
2023/09/20 07:58:24;;;;;;;2.37;1.90;;;16.80;99.90;;;;;;4972665;28;20838;-65
2023/09/20 08:00:55;;;;;;;2.10;2.00;;;16.80;99.90;;;;;;4972779;28;20544;-65
2023/09/20 08:03:23;;;;;;;2.50;2.10;;;16.90;99.90;;;;;;4971658;28;20487;-65
2023/09/20 08:05:50;;;;;;;2.50;2.27;;;17.00;99.90;;;;;;4974953;28;20471;-65
2023/09/20 08:08:18;;;;;;;2.10;2.00;;;17.10;99.90;;;;;;4992084;28;20451;-65
2023/09/20 08:10:45;;;;;;;5.50;2.67;;;17.10;99.90;;;;;;4991450;28;20496;-65
2023/09/20 08:13:13;;;;;;;4.50;2.20;;;17.20;99.90;;;;;;4991466;28;20458;-65
2023/09/20 08:15:43;;;;;;;2.70;2.50;;;17.30;99.90;;;;;;4991297;28;20503;-65
2023/09/20 08:20:55;;;;;;;5.27;3.40;;;17.50;99.90;;;;;;4987431;28;20554;-65
2023/09/20 09:02:00;;;;;;;2.33;2.03;;;21.00;99.90;;;;;;4971324;28;20445;-65
2023/09/20 09:04:29;;;;;;;1.80;1.70;;;21.10;99.90;;;;;;4971160;28;20500;-65
2023/09/20 09:06:56;;;;;;;2.33;1.50;;;21.20;99.90;;;;;;4971611;28;20453;-65
2023/09/20 09:09:22;;;;;;;2.57;1.67;;;21.30;99.90;;;;;;4971519;28;20489;-65
2023/09/20 09:11:49;;;;;;;3.13;1.73;;;21.20;99.60;;;;;;4971653;28;20450;-63
2023/09/20 09:14:16;;;;;;;2.30;1.90;;;21.30;99.90;;;;;;4971629;28;20828;-63
2023/09/20 09:16:43;;;;;;;3.33;1.53;;;21.30;99.90;;;;;;4975530;28;20532;-63
2023/09/20 09:19:10;;;;;;;2.27;1.80;;;21.20;99.50;;;;;;4975305;28;20453;-63
2023/09/20 09:21:38;;;;;;;3.83;2.23;;;21.30;99.90;;;;;;4975354;28;20929;-63
2023/09/20 09:24:05;;;;;;;1.53;1.33;;;21.30;99.90;;;;;;4974972;28;20466;-63
2023/09/20 09:26:33;;;;;;;1.67;1.50;;;21.50;99.90;;;;;;4975192;28;20458;-63
2023/09/20 09:29:00;;;;;;;4.60;2.03;;;21.60;99.90;;;;;;4974179;28;20849;-63
2023/09/20 09:31:30;;;;;;;2.63;1.67;;;21.70;98.80;;;;;;4975112;28;20453;-63
2023/09/20 09:34:02;;;;;;;2.50;1.50;;;21.80;97.90;;;;;;4974609;28;20461;-63
2023/09/20 09:36:29;;;;;;;1.63;1.47;;;21.80;98.40;;;;;;4975119;28;20450;-63
2023/09/20 09:39:10;;;;;;;1.97;1.87;;;21.90;97.20;;;;;;4974570;28;20455;-63
2023/09/20 09:41:43;;;;;;;1.47;1.40;;;22.00;97.50;;;;;;4990647;28;20460;-64
2023/09/20 09:44:10;;;;;;;1.83;1.60;;;22.10;98.30;;;;;;4993013;28;20466;-63
2023/09/20 09:46:39;;;;;;;1.90;1.73;;;22.30;98.10;;;;;;4986249;28;20959;-63
2023/09/20 09:49:10;;;;;;;1.33;1.33;;;22.40;97.50;;;;;;4994282;28;20830;-64
2023/09/20 09:51:42;;;;;;;2.00;1.63;;;22.50;98.40;;;;;;4994114;28;20601;-63
2023/09/20 09:54:12;;;;;;;4.27;1.40;;;22.70;97.20;;;;;;4993441;28;20493;-63
2023/09/20 09:56:39;;;;;;;2.90;1.30;;;22.70;95.90;;;;;;4991844;28;20455;-63
2023/09/20 09:59:06;;;;;;;1.27;1.20;;;22.80;96.20;;;;;;4987312;28;20458;-63
2023/09/20 10:01:36;;;;;;;2.07;1.70;;;22.80;95.40;;;;;;4991610;28;20486;-63
2023/09/20 10:04:05;;;;;;;3.53;1.80;;;22.90;95.50;;;;;;4993450;28;20554;-63
2023/09/20 10:06:37;;;;;;;2.40;1.93;;;22.90;95.60;;;;;;4993715;28;20459;-63
2023/09/20 10:09:10;;;;;;;3.53;2.23;;;23.00;96.20;;;;;;4993597;28;20461;-63
2023/09/20 10:11:39;;;;;;;1.53;1.43;;;23.10;95.50;;;;;;4993881;28;20451;-62
2023/09/20 10:14:07;;;;;;;1.80;1.70;;;23.20;94.90;;;;;;4975398;28;20547;-63
2023/09/20 10:16:35;;;;;;;1.90;1.80;;;23.30;95.80;;;;;;4975531;28;20453;-63
2023/09/20 10:19:03;;;;;;;1.77;1.17;;;23.40;94.70;;;;;;4990107;28;20442;-63
2023/09/20 10:21:30;;;;;;;1.57;1.47;;;23.40;94.60;;;;;;4982265;28;21003;-63
2023/09/20 10:23:59;;;;;;;2.67;1.87;;;23.50;95.20;;;;;;4986553;28;20447;-63
2023/09/20 10:26:27;;;;;;;1.43;1.20;;;23.60;94.30;;;;;;4989879;28;20463;-63
2023/09/20 10:28:58;;;;;;;2.23;1.37;;;23.70;95.60;;;;;;4988961;28;20448;-63
2023/09/20 10:31:29;;;;;;;2.33;2.20;;;23.70;93.30;;;;;;4986894;28;20491;-63
2023/09/20 10:33:57;;;;;;;2.93;2.73;;;23.60;93.00;;;;;;4987944;28;20452;-63
2023/09/20 10:36:25;;;;;;;2.63;2.43;;;23.50;93.30;;;;;;4987070;28;20546;-63
2023/09/20 10:39:16;;;;;;;1.80;1.70;;;23.50;94.20;;;;;;4978661;28;20967;-63
2023/09/20 10:41:44;;;;;;;1.50;1.40;;;23.40;93.00;;;;;;4988937;28;20526;-63
2023/09/20 10:44:28;;;;;;;1.73;1.60;;;23.50;94.20;;;;;;4985299;28;20466;-63
2023/09/20 10:46:56;;;;;;;2.50;1.73;;;23.50;93.20;;;;;;4988633;28;20460;-63
2023/09/20 10:49:45;;;;;;;2.50;1.70;;;23.60;93.60;;;;;;4985965;28;20539;-62
2023/09/20 10:52:12;;;;;;;1.67;1.57;;;23.60;93.00;;;;;;4987146;28;20966;-63
2023/09/20 10:54:39;;;;;;;1.90;1.73;;;23.60;92.20;;;;;;4985535;28;20484;-63
2023/09/20 10:57:09;;;;;;;3.53;1.80;;;23.70;93.90;;;;;;4987472;28;21210;-63
2023/09/20 10:59:40;;;;;;;2.20;1.63;;;23.80;93.20;;;;;;4982669;28;20530;-63
2023/09/20 11:02:12;;;;;;;2.13;1.93;;;23.90;93.50;;;;;;4991924;28;20458;-63
2023/09/20 11:04:40;;;;;;;2.40;2.20;;;24.10;93.50;;;;;;4989433;28;20570;-63
2023/09/20 11:07:08;;;;;;;2.23;1.80;;;24.20;93.20;;;;;;4983071;28;20450;-63
2023/09/20 11:09:35;;;;;;;2.03;1.70;;;24.30;93.00;;;;;;4984365;28;20909;-63
2023/09/20 11:12:11;;;;;;;1.60;1.50;;;24.50;93.20;;;;;;4991472;28;20459;-63
2023/09/20 11:14:41;;;;;;;1.63;1.40;;;24.60;93.60;;;;;;4983805;28;20843;-63
2023/09/20 11:17:08;;;;;;;2.10;1.83;;;24.70;93.20;;;;;;4987662;28;20455;-63
2023/09/20 11:19:38;;;;;;;2.83;1.70;;;24.80;91.90;;;;;;4985878;28;20829;-63
2023/09/20 11:22:06;;;;;;;2.10;1.90;;;24.80;91.50;;;;;;4985560;28;20487;-63
2023/09/20 11:24:33;;;;;;;1.83;1.73;;;24.80;91.70;;;;;;4983594;28;20474;-63
2023/09/20 11:27:00;;;;;;;2.60;2.10;;;24.80;92.00;;;;;;4982774;28;20460;-63
2023/09/20 11:29:27;;;;;;;1.70;1.60;;;24.90;91.60;;;;;;4989630;28;20529;-63
2023/09/20 11:31:58;;;;;;;2.00;1.90;;;25.00;91.10;;;;;;4980347;28;21136;-63
2023/09/20 11:34:28;;;;;;;1.90;1.70;;;25.10;92.10;;;;;;4984464;28;20491;-63
2023/09/20 11:36:56;;;;;;;2.37;2.17;;;25.20;92.10;;;;;;4982204;28;20462;-64
2023/09/20 11:39:29;;;;;;;3.00;2.00;;;25.30;91.60;;;;;;4980453;28;21084;-63
2023/09/20 11:42:01;;;;;;;2.10;1.80;;;25.40;89.30;;;;;;4990583;28;20449;-62
2023/09/20 11:44:28;;;;;;;1.90;1.80;;;25.60;90.00;;;;;;4987432;28;21015;-63
2023/09/20 11:46:57;;;;;;;3.27;1.87;;;25.70;88.90;;;;;;4983859;28;20821;-63
2023/09/20 11:49:27;;;;;;;3.53;2.13;;;25.80;88.70;;;;;;4976148;28;20961;-64
2023/09/20 11:51:57;;;;;;;1.50;1.40;;;25.90;88.30;;;;;;4983945;28;20513;-64
2023/09/20 11:54:30;;;;;;;1.53;1.43;;;25.80;86.60;;;;;;4978400;28;20514;-63
2023/09/20 11:57:00;;;;;;;2.40;1.70;;;25.90;85.10;;;;;;4987343;28;20974;-63
2023/09/20 11:59:27;;;;;;;2.00;1.90;;;26.00;87.50;;;;;;4972521;28;20454;-63
2023/09/20 12:01:54;;;;;;;1.93;1.83;;;26.20;84.80;;;;;;4979779;28;20824;-63
2023/09/20 12:04:21;;;;;;;1.43;1.33;;;26.20;83.90;;;;;;4982956;28;20470;-63
2023/09/20 12:06:53;;;;;;;1.97;1.77;;;26.40;85.60;;;;;;4976401;28;20446;-63
2023/09/20 12:09:19;;;;;;;2.60;2.10;;;26.40;82.20;;;;;;4975399;28;20446;-63
2023/09/20 12:11:47;;;;;;;1.47;1.37;;;26.50;84.20;;;;;;4984439;28;21002;-63
2023/09/20 12:14:14;;;;;;;2.70;2.00;;;26.60;81.70;;;;;;4981941;28;20543;-63
2023/09/20 12:16:47;;;;;;;1.27;1.20;;;26.70;83.30;;;;;;4991498;28;20452;-63
2023/09/20 12:19:14;;;;;;;1.83;1.60;;;26.80;81.60;;;;;;4975068;28;20452;-63
2023/09/20 12:21:41;;;;;;;2.77;1.40;;;26.90;82.10;;;;;;4985109;28;20909;-63
2023/09/20 12:24:11;;;;;;;2.73;2.47;;;27.00;80.80;;;;;;4981432;28;20475;-63
2023/09/20 12:26:38;;;;;;;2.40;1.87;;;27.10;83.50;;;;;;4991067;28;20483;-63
2023/09/20 12:29:06;;;;;;;3.03;1.77;;;27.10;74.30;;;;;;4981651;28;20449;-63
2023/09/20 12:31:33;;;;;;;4.40;1.50;;;27.20;75.40;;;;;;4976605;28;20485;-63
2023/09/20 12:34:00;;;;;;;2.17;1.97;;;27.30;76.20;;;;;;4982199;28;20553;-63
2023/09/20 12:36:28;;;;;;;4.20;1.90;;;27.40;76.50;;;;;;4983848;28;20544;-62
2023/09/20 12:38:55;;;;;;;2.10;1.63;;;27.50;79.40;;;;;;4990856;28;20455;-63
2023/09/20 12:41:25;;;;;;;1.83;1.70;;;27.70;80.40;;;;;;4984292;28;20454;-63
2023/09/20 12:43:52;;;;;;;1.67;1.57;;;27.80;75.70;;;;;;4978846;28;20453;-63
2023/09/20 12:46:21;;;;;;;2.07;1.80;;;28.00;77.00;;;;;;4987171;28;20534;-63
2023/09/20 12:48:48;;;;;;;1.77;1.67;;;28.10;74.50;;;;;;4973233;28;20804;-63
2023/09/20 12:51:15;;;;;;;1.80;1.70;;;28.10;74.10;;;;;;4991942;28;20580;-63
2023/09/20 12:53:42;;;;;;;2.47;2.27;;;28.30;74.70;;;;;;4981441;28;20508;-63
2023/09/20 12:56:12;;;;;;;1.70;1.60;;;28.50;70.30;;;;;;4995308;28;20466;-63
2023/09/20 12:58:41;;;;;;;3.13;2.10;;;28.80;73.40;;;;;;4991725;28;20981;-63
2023/09/20 13:01:09;;;;;;;1.80;1.70;;;29.00;71.90;;;;;;4987699;28;20478;-63
2023/09/20 13:03:37;;;;;;;1.70;1.60;;;29.30;68.30;;;;;;4975100;28;21029;-63
2023/09/20 13:06:04;;;;;;;2.17;2.07;;;29.50;71.90;;;;;;4984715;28;20462;-63
2023/09/20 13:08:31;;;;;;;1.97;1.60;;;29.70;68.30;;;;;;4981599;28;20478;-63
2023/09/20 13:10:58;;;;;;;2.37;1.83;;;29.90;64.40;;;;;;4991616;28;21119;-63
2023/09/20 13:13:26;;;;;;;2.80;2.17;;;30.10;68.30;;;;;;4990462;28;20448;-63
2023/09/20 13:15:54;;;;;;;1.90;1.80;;;30.20;62.60;;;;;;4982829;28;20469;-63
2023/09/20 13:18:21;;;;;;;2.40;1.67;;;30.50;63.40;;;;;;4994871;28;20446;-63
2023/09/20 13:20:48;;;;;;;2.03;1.50;;;30.50;63.90;;;;;;4986007;28;20444;-64
2023/09/20 13:23:16;;;;;;;2.00;1.80;;;30.70;61.70;;;;;;4983402;28;20904;-63
2023/09/20 13:25:42;;;;;;;2.57;2.37;;;30.90;64.80;;;;;;4981179;28;20551;-63
2023/09/20 13:28:10;;;;;;;1.87;1.70;;;31.10;59.70;;;;;;4984548;28;20472;-63
2023/09/20 13:30:40;;;;;;;3.10;1.77;;;31.30;63.30;;;;;;5015674;23;20507;-64
2023/09/20 13:33:10;;;;;;;2.43;2.23;;;31.50;60.00;;;;;;4997024;28;20463;-64
2023/09/20 13:35:39;;;;;;;2.13;1.97;;;31.70;58.00;;;;;;5009054;28;20441;-64